sensor_id;sensor_type;location;lat;lon;timestamp;temperature;humidity
24410;DHT22;12543;53.364;-1.504;2022-08-01T00:00:04;16.30;99.90
24410;DHT22;12543;53.364;-1.504;2022-08-01T00:02:35;16.30;99.90
24410;DHT22;12543;53.364;-1.504;2022-08-01T00:05:02;16.30;99.90
24410;DHT22;12543;53.364;-1.504;2022-08-01T00:07:31;16.30;99.90
24410;DHT22;12543;53.364;-1.504;2022-08-01T00:09:58;16.30;99.90
24410;DHT22;12543;53.364;-1.504;2022-08-01T00:12:25;16.30;99.90
24410;DHT22;12543;53.364;-1.504;2022-08-01T00:14:52;16.30;99.90
24410;DHT22;12543;53.364;-1.504;2022-08-01T00:17:19;16.30;99.90
24410;DHT22;12543;53.364;-1.504;2022-08-01T00:19:46;16.30;99.90
24410;DHT22;12543;53.364;-1.504;2022-08-01T00:22:13;16.30;99.90
24410;DHT22;12543;53.364;-1.504;2022-08-01T00:24:40;16.30;99.90
24410;DHT22;12543;53.364;-1.504;2022-08-01T00:27:07;16.30;99.90
24410;DHT22;12543;53.364;-1.504;2022-08-01T00:29:34;16.30;99.90
24410;DHT22;12543;53.364;-1.504;2022-08-01T00:32:21;16.30;99.90
24410;DHT22;12543;53.364;-1.504;2022-08-01T00:34:49;16.30;99.90
24410;DHT22;12543;53.364;-1.504;2022-08-01T00:37:16;16.30;99.90
24410;DHT22;12543;53.364;-1.504;2022-08-01T00:39:43;16.30;99.90
24410;DHT22;12543;53.364;-1.504;2022-08-01T00:42:11;16.30;99.90
24410;DHT22;12543;53.364;-1.504;2022-08-01T00:44:39;16.30;99.90
24410;DHT22;12543;53.364;-1.504;2022-08-01T00:47:06;16.30;99.90
24410;DHT22;12543;53.364;-1.504;2022-08-01T00:49:33;16.30;99.90
24410;DHT22;12543;53.364;-1.504;2022-08-01T00:52:01;16.30;99.90
24410;DHT22;12543;53.364;-1.504;2022-08-01T00:54:29;16.30;99.90
24410;DHT22;12543;53.364;-1.504;2022-08-01T00:56:56;16.30;99.90
24410;DHT22;12543;53.364;-1.504;2022-08-01T00:59:24;16.30;99.90
24410;DHT22;12543;53.364;-1.504;2022-08-01T01:01:52;16.30;99.90
24410;DHT22;12543;53.364;-1.504;2022-08-01T01:04:19;16.20;99.90
24410;DHT22;12543;53.364;-1.504;2022-08-01T01:06:57;16.20;99.90
24410;DHT22;12543;53.364;-1.504;2022-08-01T01:09:30;16.20;99.90
24410;DHT22;12543;53.364;-1.504;2022-08-01T01:17:06;16.20;99.90
24410;DHT22;12543;53.364;-1.504;2022-08-01T01:19:35;16.20;99.90
24410;DHT22;12543;53.364;-1.504;2022-08-01T01:25:04;16.10;99.90
24410;DHT22;12543;53.364;-1.504;2022-08-01T01:27:51;16.10;99.90
24410;DHT22;12543;53.364;-1.504;2022-08-01T01:30:21;16.10;99.90
24410;DHT22;12543;53.364;-1.504;2022-08-01T01:32:49;16.10;99.90
24410;DHT22;12543;53.364;-1.504;2022-08-01T01:35:18;16.10;99.90
24410;DHT22;12543;53.364;-1.504;2022-08-01T01:37:47;16.10;99.90
24410;DHT22;12543;53.364;-1.504;2022-08-01T01:40:15;16.10;99.90
24410;DHT22;12543;53.364;-1.504;2022-08-01T01:42:43;16.00;99.90
24410;DHT22;12543;53.364;-1.504;2022-08-01T01:45:10;16.00;99.90
24410;DHT22;12543;53.364;-1.504;2022-08-01T01:47:38;16.00;99.90
24410;DHT22;12543;53.364;-1.504;2022-08-01T01:50:07;16.00;99.90
24410;DHT22;12543;53.364;-1.504;2022-08-01T01:52:36;16.00;99.90
24410;DHT22;12543;53.364;-1.504;2022-08-01T01:55:06;16.00;99.90
24410;DHT22;12543;53.364;-1.504;2022-08-01T01:57:36;16.00;99.90
24410;DHT22;12543;53.364;-1.504;2022-08-01T02:00:04;16.00;99.90
24410;DHT22;12543;53.364;-1.504;2022-08-01T02:02:34;16.00;99.90
24410;DHT22;12543;53.364;-1.504;2022-08-01T02:05:03;16.00;99.90
24410;DHT22;12543;53.364;-1.504;2022-08-01T02:07:30;16.00;99.90
24410;DHT22;12543;53.364;-1.504;2022-08-01T02:09:59;16.00;99.90
24410;DHT22;12543;53.364;-1.504;2022-08-01T02:12:27;15.90;99.90
24410;DHT22;12543;53.364;-1.504;2022-08-01T02:14:54;15.90;99.90
24410;DHT22;12543;53.364;-1.504;2022-08-01T02:17:23;15.90;99.90
24410;DHT22;12543;53.364;-1.504;2022-08-01T02:19:53;15.90;99.90
24410;DHT22;12543;53.364;-1.504;2022-08-01T02:25:04;15.90;99.90
24410;DHT22;12543;53.364;-1.504;2022-08-01T02:30:18;15.90;99.90
24410;DHT22;12543;53.364;-1.504;2022-08-01T02:32:46;15.80;99.90
24410;DHT22;12543;53.364;-1.504;2022-08-01T02:35:19;15.80;99.90
24410;DHT22;12543;53.364;-1.504;2022-08-01T02:37:47;15.80;99.90
24410;DHT22;12543;53.364;-1.504;2022-08-01T02:40:14;15.80;99.90
24410;DHT22;12543;53.364;-1.504;2022-08-01T02:42:44;15.70;99.90
24410;DHT22;12543;53.364;-1.504;2022-08-01T02:45:12;15.70;99.90
24410;DHT22;12543;53.364;-1.504;2022-08-01T02:47:40;15.70;99.90
24410;DHT22;12543;53.364;-1.504;2022-08-01T02:50:08;15.70;99.90
24410;DHT22;12543;53.364;-1.504;2022-08-01T02:52:37;15.60;99.90
24410;DHT22;12543;53.364;-1.504;2022-08-01T02:55:06;15.60;99.90
24410;DHT22;12543;53.364;-1.504;2022-08-01T02:57:35;15.60;99.90
24410;DHT22;12543;53.364;-1.504;2022-08-01T03:00:22;15.60;99.90
24410;DHT22;12543;53.364;-1.504;2022-08-01T03:02:50;15.50;99.90
24410;DHT22;12543;53.364;-1.504;2022-08-01T03:05:21;15.50;99.90
24410;DHT22;12543;53.364;-1.504;2022-08-01T03:07:49;15.50;99.90
24410;DHT22;12543;53.364;-1.504;2022-08-01T03:10:18;15.50;99.90
24410;DHT22;12543;53.364;-1.504;2022-08-01T03:12:45;15.50;99.90
24410;DHT22;12543;53.364;-1.504;2022-08-01T03:15:14;15.50;99.90
24410;DHT22;12543;53.364;-1.504;2022-08-01T03:17:41;15.40;99.90
24410;DHT22;12543;53.364;-1.504;2022-08-01T03:20:10;15.50;99.90
24410;DHT22;12543;53.364;-1.504;2022-08-01T03:22:38;15.50;99.90
24410;DHT22;12543;53.364;-1.504;2022-08-01T03:25:07;15.50;99.90
24410;DHT22;12543;53.364;-1.504;2022-08-01T03:27:34;15.40;99.90
24410;DHT22;12543;53.364;-1.504;2022-08-01T03:30:03;15.40;99.90
24410;DHT22;12543;53.364;-1.504;2022-08-01T03:32:31;15.40;99.90
24410;DHT22;12543;53.364;-1.504;2022-08-01T03:34:58;15.40;99.90
24410;DHT22;12543;53.364;-1.504;2022-08-01T03:37:44;15.40;99.90
24410;DHT22;12543;53.364;-1.504;2022-08-01T03:40:36;15.40;99.90
24410;DHT22;12543;53.364;-1.504;2022-08-01T03:43:05;15.40;99.90
24410;DHT22;12543;53.364;-1.504;2022-08-01T03:45:35;15.40;99.90
24410;DHT22;12543;53.364;-1.504;2022-08-01T03:48:05;15.30;99.90
24410;DHT22;12543;53.364;-1.504;2022-08-01T03:50:32;15.30;99.90
24410;DHT22;12543;53.364;-1.504;2022-08-01T03:53:01;15.30;99.90
24410;DHT22;12543;53.364;-1.504;2022-08-01T03:55:29;15.30;99.90
24410;DHT22;12543;53.364;-1.504;2022-08-01T03:57:58;15.30;99.90
24410;DHT22;12543;53.364;-1.504;2022-08-01T04:00:25;15.20;99.90
24410;DHT22;12543;53.364;-1.504;2022-08-01T04:02:53;15.20;99.90
24410;DHT22;12543;53.364;-1.504;2022-08-01T04:05:20;15.10;99.90
24410;DHT22;12543;53.364;-1.504;2022-08-01T04:07:48;15.10;99.90
24410;DHT22;12543;53.364;-1.504;2022-08-01T04:10:23;15.00;99.90
24410;DHT22;12543;53.364;-1.504;2022-08-01T04:12:51;15.00;99.90
24410;DHT22;12543;53.364;-1.504;2022-08-01T04:15:18;14.90;99.90
24410;DHT22;12543;53.364;-1.504;2022-08-01T04:17:47;14.80;99.90
24410;DHT22;12543;53.364;-1.504;2022-08-01T04:20:14;14.80;99.90
24410;DHT22;12543;53.364;-1.504;2022-08-01T04:22:42;14.80;99.90
24410;DHT22;12543;53.364;-1.504;2022-08-01T04:25:32;14.70;99.90
24410;DHT22;12543;53.364;-1.504;2022-08-01T04:27:57;14.70;99.90
24410;DHT22;12543;53.364;-1.504;2022-08-01T04:30:27;14.70;99.90
24410;DHT22;12543;53.364;-1.504;2022-08-01T04:32:57;14.60;99.90
24410;DHT22;12543;53.364;-1.504;2022-08-01T04:35:26;14.60;99.90
24410;DHT22;12543;53.364;-1.504;2022-08-01T04:38:14;14.60;99.90
24410;DHT22;12543;53.364;-1.504;2022-08-01T04:40:44;14.50;99.90
24410;DHT22;12543;53.364;-1.504;2022-08-01T04:43:12;14.50;99.90
24410;DHT22;12543;53.364;-1.504;2022-08-01T04:45:40;14.50;99.90
24410;DHT22;12543;53.364;-1.504;2022-08-01T04:48:10;14.40;99.90
24410;DHT22;12543;53.364;-1.504;2022-08-01T04:50:37;14.40;99.90
24410;DHT22;12543;53.364;-1.504;2022-08-01T04:53:04;14.40;99.90
24410;DHT22;12543;53.364;-1.504;2022-08-01T04:55:31;14.40;99.90
24410;DHT22;12543;53.364;-1.504;2022-08-01T04:57:59;14.40;99.90
24410;DHT22;12543;53.364;-1.504;2022-08-01T05:00:26;14.30;99.90
24410;DHT22;12543;53.364;-1.504;2022-08-01T05:02:56;14.40;99.90
24410;DHT22;12543;53.364;-1.504;2022-08-01T05:05:23;14.40;99.90
24410;DHT22;12543;53.364;-1.504;2022-08-01T05:07:52;14.30;99.90
24410;DHT22;12543;53.364;-1.504;2022-08-01T05:10:20;14.30;99.90
24410;DHT22;12543;53.364;-1.504;2022-08-01T05:12:46;14.30;99.90
24410;DHT22;12543;53.364;-1.504;2022-08-01T05:15:13;14.40;99.90
24410;DHT22;12543;53.364;-1.504;2022-08-01T05:17:41;14.40;99.90
24410;DHT22;12543;53.364;-1.504;2022-08-01T05:20:09;14.40;99.90
24410;DHT22;12543;53.364;-1.504;2022-08-01T05:22:37;14.40;99.90
24410;DHT22;12543;53.364;-1.504;2022-08-01T05:25:04;14.30;99.90
24410;DHT22;12543;53.364;-1.504;2022-08-01T05:27:34;14.40;99.90
24410;DHT22;12543;53.364;-1.504;2022-08-01T05:30:07;14.40;99.90
24410;DHT22;12543;53.364;-1.504;2022-08-01T05:32:35;14.40;99.90
24410;DHT22;12543;53.364;-1.504;2022-08-01T05:35:02;14.40;99.90
24410;DHT22;12543;53.364;-1.504;2022-08-01T05:37:29;14.40;99.90
24410;DHT22;12543;53.364;-1.504;2022-08-01T05:39:56;14.40;99.90
24410;DHT22;12543;53.364;-1.504;2022-08-01T05:42:24;14.50;99.90
24410;DHT22;12543;53.364;-1.504;2022-08-01T05:44:52;14.50;99.90
24410;DHT22;12543;53.364;-1.504;2022-08-01T05:47:19;14.50;99.90
24410;DHT22;12543;53.364;-1.504;2022-08-01T05:49:46;14.50;99.90
24410;DHT22;12543;53.364;-1.504;2022-08-01T05:52:12;14.50;99.90
24410;DHT22;12543;53.364;-1.504;2022-08-01T05:54:39;14.60;99.90
24410;DHT22;12543;53.364;-1.504;2022-08-01T05:57:06;14.60;99.90
24410;DHT22;12543;53.364;-1.504;2022-08-01T05:59:33;14.60;99.90
24410;DHT22;12543;53.364;-1.504;2022-08-01T06:02:00;14.60;99.90
24410;DHT22;12543;53.364;-1.504;2022-08-01T06:04:28;14.60;99.90
24410;DHT22;12543;53.364;-1.504;2022-08-01T06:06:54;14.70;99.90
24410;DHT22;12543;53.364;-1.504;2022-08-01T06:09:22;14.70;99.90
24410;DHT22;12543;53.364;-1.504;2022-08-01T06:11:49;14.80;99.90
24410;DHT22;12543;53.364;-1.504;2022-08-01T06:14:16;14.80;99.90
24410;DHT22;12543;53.364;-1.504;2022-08-01T06:16:44;14.80;99.90
24410;DHT22;12543;53.364;-1.504;2022-08-01T06:19:11;14.90;99.90
24410;DHT22;12543;53.364;-1.504;2022-08-01T06:21:38;14.90;99.90
24410;DHT22;12543;53.364;-1.504;2022-08-01T06:24:05;14.90;99.90
24410;DHT22;12543;53.364;-1.504;2022-08-01T06:26:32;15.00;99.90
24410;DHT22;12543;53.364;-1.504;2022-08-01T06:28:59;15.00;99.90
24410;DHT22;12543;53.364;-1.504;2022-08-01T06:31:26;15.10;99.90
24410;DHT22;12543;53.364;-1.504;2022-08-01T06:34:00;15.10;99.90
24410;DHT22;12543;53.364;-1.504;2022-08-01T06:36:27;15.20;99.90
24410;DHT22;12543;53.364;-1.504;2022-08-01T06:38:54;15.20;99.90
24410;DHT22;12543;53.364;-1.504;2022-08-01T06:41:21;15.30;99.90
24410;DHT22;12543;53.364;-1.504;2022-08-01T06:43:48;15.30;99.90
24410;DHT22;12543;53.364;-1.504;2022-08-01T06:46:15;15.30;99.90
24410;DHT22;12543;53.364;-1.504;2022-08-01T06:48:42;15.40;99.90
24410;DHT22;12543;53.364;-1.504;2022-08-01T06:51:09;15.40;99.90
24410;DHT22;12543;53.364;-1.504;2022-08-01T06:53:40;15.50;99.90
24410;DHT22;12543;53.364;-1.504;2022-08-01T06:56:09;15.50;99.90
24410;DHT22;12543;53.364;-1.504;2022-08-01T06:58:36;15.50;99.90
24410;DHT22;12543;53.364;-1.504;2022-08-01T07:01:04;15.60;99.90
24410;DHT22;12543;53.364;-1.504;2022-08-01T07:03:34;15.60;99.90
24410;DHT22;12543;53.364;-1.504;2022-08-01T07:06:23;15.60;99.90
24410;DHT22;12543;53.364;-1.504;2022-08-01T07:08:50;15.60;99.90
24410;DHT22;12543;53.364;-1.504;2022-08-01T07:11:17;15.70;99.90
24410;DHT22;12543;53.364;-1.504;2022-08-01T07:13:45;15.70;99.90
24410;DHT22;12543;53.364;-1.504;2022-08-01T07:16:14;15.80;99.90
24410;DHT22;12543;53.364;-1.504;2022-08-01T07:18:42;15.80;99.90
24410;DHT22;12543;53.364;-1.504;2022-08-01T07:21:09;15.90;99.90
24410;DHT22;12543;53.364;-1.504;2022-08-01T07:23:55;15.90;99.90
24410;DHT22;12543;53.364;-1.504;2022-08-01T07:26:22;16.00;99.90
24410;DHT22;12543;53.364;-1.504;2022-08-01T07:28:49;16.00;99.90
24410;DHT22;12543;53.364;-1.504;2022-08-01T07:31:16;16.00;99.90
24410;DHT22;12543;53.364;-1.504;2022-08-01T07:33:43;16.00;99.90
24410;DHT22;12543;53.364;-1.504;2022-08-01T07:36:18;16.00;99.90
24410;DHT22;12543;53.364;-1.504;2022-08-01T07:38:46;16.10;99.90
24410;DHT22;12543;53.364;-1.504;2022-08-01T07:41:14;16.10;99.90
24410;DHT22;12543;53.364;-1.504;2022-08-01T07:43:41;16.10;99.90
24410;DHT22;12543;53.364;-1.504;2022-08-01T07:46:21;16.10;99.90
24410;DHT22;12543;53.364;-1.504;2022-08-01T07:48:48;16.20;99.90
24410;DHT22;12543;53.364;-1.504;2022-08-01T07:51:15;16.20;99.90
24410;DHT22;12543;53.364;-1.504;2022-08-01T07:53:41;16.20;99.90
24410;DHT22;12543;53.364;-1.504;2022-08-01T07:56:08;16.20;99.90
24410;DHT22;12543;53.364;-1.504;2022-08-01T07:58:36;16.30;99.90
24410;DHT22;12543;53.364;-1.504;2022-08-01T08:01:04;16.30;99.90
24410;DHT22;12543;53.364;-1.504;2022-08-01T08:03:31;16.30;99.90
24410;DHT22;12543;53.364;-1.504;2022-08-01T08:05:58;16.40;99.90
24410;DHT22;12543;53.364;-1.504;2022-08-01T08:08:27;16.40;99.90
24410;DHT22;12543;53.364;-1.504;2022-08-01T08:10:56;16.40;99.90
24410;DHT22;12543;53.364;-1.504;2022-08-01T08:13:23;16.50;99.90
24410;DHT22;12543;53.364;-1.504;2022-08-01T08:15:50;16.50;99.90
24410;DHT22;12543;53.364;-1.504;2022-08-01T08:18:17;16.50;99.90
24410;DHT22;12543;53.364;-1.504;2022-08-01T08:20:44;16.60;99.90
24410;DHT22;12543;53.364;-1.504;2022-08-01T08:23:11;16.60;99.90
24410;DHT22;12543;53.364;-1.504;2022-08-01T08:26:09;16.70;99.90
24410;DHT22;12543;53.364;-1.504;2022-08-01T08:28:37;16.70;99.90
24410;DHT22;12543;53.364;-1.504;2022-08-01T08:31:06;16.70;99.90
24410;DHT22;12543;53.364;-1.504;2022-08-01T08:33:51;16.80;99.90
24410;DHT22;12543;53.364;-1.504;2022-08-01T08:36:19;16.80;99.90
24410;DHT22;12543;53.364;-1.504;2022-08-01T08:38:46;16.90;99.90
24410;DHT22;12543;53.364;-1.504;2022-08-01T08:41:13;16.90;99.90
24410;DHT22;12543;53.364;-1.504;2022-08-01T08:43:47;17.00;99.90
24410;DHT22;12543;53.364;-1.504;2022-08-01T08:46:14;17.10;99.90
24410;DHT22;12543;53.364;-1.504;2022-08-01T08:48:41;17.20;99.90
24410;DHT22;12543;53.364;-1.504;2022-08-01T08:51:08;17.20;99.90
24410;DHT22;12543;53.364;-1.504;2022-08-01T08:53:40;17.30;99.90
24410;DHT22;12543;53.364;-1.504;2022-08-01T08:56:11;17.40;99.90
24410;DHT22;12543;53.364;-1.504;2022-08-01T08:58:39;17.40;99.90
24410;DHT22;12543;53.364;-1.504;2022-08-01T09:01:08;17.50;99.90
24410;DHT22;12543;53.364;-1.504;2022-08-01T09:03:36;17.60;99.90
24410;DHT22;12543;53.364;-1.504;2022-08-01T09:06:03;17.60;99.90
24410;DHT22;12543;53.364;-1.504;2022-08-01T09:08:30;17.60;99.90
24410;DHT22;12543;53.364;-1.504;2022-08-01T09:10:59;17.70;99.90
24410;DHT22;12543;53.364;-1.504;2022-08-01T09:13:30;17.80;99.90
24410;DHT22;12543;53.364;-1.504;2022-08-01T09:16:15;17.90;99.90
24410;DHT22;12543;53.364;-1.504;2022-08-01T09:18:44;18.00;99.90
24410;DHT22;12543;53.364;-1.504;2022-08-01T09:21:19;18.10;99.90
24410;DHT22;12543;53.364;-1.504;2022-08-01T09:23:49;18.10;99.90
24410;DHT22;12543;53.364;-1.504;2022-08-01T09:26:21;18.20;99.90
24410;DHT22;12543;53.364;-1.504;2022-08-01T09:28:54;18.30;99.90
24410;DHT22;12543;53.364;-1.504;2022-08-01T09:31:21;18.40;99.90
24410;DHT22;12543;53.364;-1.504;2022-08-01T09:33:50;18.60;99.90
24410;DHT22;12543;53.364;-1.504;2022-08-01T09:36:18;18.70;99.90
24410;DHT22;12543;53.364;-1.504;2022-08-01T09:38:45;18.80;99.90
24410;DHT22;12543;53.364;-1.504;2022-08-01T09:41:17;18.80;99.90
24410;DHT22;12543;53.364;-1.504;2022-08-01T09:43:50;19.00;99.90
24410;DHT22;12543;53.364;-1.504;2022-08-01T09:46:19;19.10;99.90
24410;DHT22;12543;53.364;-1.504;2022-08-01T09:51:33;19.90;99.90
24410;DHT22;12543;53.364;-1.504;2022-08-01T09:54:33;20.50;99.90
24410;DHT22;12543;53.364;-1.504;2022-08-01T09:59:37;22.10;99.90
24410;DHT22;12543;53.364;-1.504;2022-08-01T10:02:28;22.90;99.90
24410;DHT22;12543;53.364;-1.504;2022-08-01T10:04:55;23.60;99.90
24410;DHT22;12543;53.364;-1.504;2022-08-01T10:07:29;24.30;99.90
24410;DHT22;12543;53.364;-1.504;2022-08-01T10:10:10;25.00;99.90
24410;DHT22;12543;53.364;-1.504;2022-08-01T10:12:43;25.60;99.90
24410;DHT22;12543;53.364;-1.504;2022-08-01T10:15:14;26.10;99.90
24410;DHT22;12543;53.364;-1.504;2022-08-01T10:17:52;26.60;99.90
24410;DHT22;12543;53.364;-1.504;2022-08-01T10:20:32;27.20;99.90
24410;DHT22;12543;53.364;-1.504;2022-08-01T10:23:01;27.50;99.90
24410;DHT22;12543;53.364;-1.504;2022-08-01T10:25:37;27.90;99.90
24410;DHT22;12543;53.364;-1.504;2022-08-01T10:28:13;28.20;99.90
24410;DHT22;12543;53.364;-1.504;2022-08-01T10:30:47;28.70;99.90
24410;DHT22;12543;53.364;-1.504;2022-08-01T10:33:15;29.10;99.90
24410;DHT22;12543;53.364;-1.504;2022-08-01T10:36:02;29.40;99.90
24410;DHT22;12543;53.364;-1.504;2022-08-01T10:38:34;29.70;99.90
24410;DHT22;12543;53.364;-1.504;2022-08-01T10:41:03;29.70;99.90
24410;DHT22;12543;53.364;-1.504;2022-08-01T10:43:32;29.50;99.90
24410;DHT22;12543;53.364;-1.504;2022-08-01T10:46:01;29.30;99.90
24410;DHT22;12543;53.364;-1.504;2022-08-01T10:48:54;29.10;99.90
24410;DHT22;12543;53.364;-1.504;2022-08-01T10:51:17;29.00;99.90
24410;DHT22;12543;53.364;-1.504;2022-08-01T10:53:50;28.90;99.90
24410;DHT22;12543;53.364;-1.504;2022-08-01T10:56:22;28.80;99.90
24410;DHT22;12543;53.364;-1.504;2022-08-01T10:59:02;28.80;99.90
24410;DHT22;12543;53.364;-1.504;2022-08-01T11:01:37;28.80;99.90
24410;DHT22;12543;53.364;-1.504;2022-08-01T11:04:12;28.80;99.90
24410;DHT22;12543;53.364;-1.504;2022-08-01T11:12:03;29.20;99.90
24410;DHT22;12543;53.364;-1.504;2022-08-01T11:14:33;29.10;99.90
24410;DHT22;12543;53.364;-1.504;2022-08-01T11:25:22;28.80;99.90
24410;DHT22;12543;53.364;-1.504;2022-08-01T11:38:38;30.20;99.90
24410;DHT22;12543;53.364;-1.504;2022-08-01T11:43:59;29.70;99.90
24410;DHT22;12543;53.364;-1.504;2022-08-01T11:52:27;28.80;99.90
24410;DHT22;12543;53.364;-1.504;2022-08-01T11:55:05;28.70;99.90
24410;DHT22;12543;53.364;-1.504;2022-08-01T11:57:36;28.50;99.90
24410;DHT22;12543;53.364;-1.504;2022-08-01T12:00:15;28.50;99.90
24410;DHT22;12543;53.364;-1.504;2022-08-01T12:02:44;28.40;99.90
24410;DHT22;12543;53.364;-1.504;2022-08-01T12:05:15;28.30;99.90
24410;DHT22;12543;53.364;-1.504;2022-08-01T12:07:47;28.40;99.90
24410;DHT22;12543;53.364;-1.504;2022-08-01T12:10:16;28.50;99.90
24410;DHT22;12543;53.364;-1.504;2022-08-01T12:12:48;28.80;99.90
24410;DHT22;12543;53.364;-1.504;2022-08-01T12:15:16;29.10;99.90
24410;DHT22;12543;53.364;-1.504;2022-08-01T12:17:45;29.20;99.90
24410;DHT22;12543;53.364;-1.504;2022-08-01T12:20:28;29.40;99.90
24410;DHT22;12543;53.364;-1.504;2022-08-01T12:22:58;29.70;99.90
24410;DHT22;12543;53.364;-1.504;2022-08-01T12:25:25;30.10;99.90
24410;DHT22;12543;53.364;-1.504;2022-08-01T12:27:53;30.40;99.90
24410;DHT22;12543;53.364;-1.504;2022-08-01T12:30:22;30.70;99.90
24410;DHT22;12543;53.364;-1.504;2022-08-01T12:32:51;31.10;99.90
24410;DHT22;12543;53.364;-1.504;2022-08-01T12:35:22;31.50;99.90
24410;DHT22;12543;53.364;-1.504;2022-08-01T12:37:50;31.70;99.90
24410;DHT22;12543;53.364;-1.504;2022-08-01T12:42:52;32.10;99.90
24410;DHT22;12543;53.364;-1.504;2022-08-01T12:45:23;32.10;99.90
24410;DHT22;12543;53.364;-1.504;2022-08-01T12:47:51;32.00;99.90
24410;DHT22;12543;53.364;-1.504;2022-08-01T12:50:20;31.90;99.90
24410;DHT22;12543;53.364;-1.504;2022-08-01T12:52:48;32.10;99.90
24410;DHT22;12543;53.364;-1.504;2022-08-01T12:55:19;32.10;99.90
24410;DHT22;12543;53.364;-1.504;2022-08-01T12:57:48;32.20;99.90
24410;DHT22;12543;53.364;-1.504;2022-08-01T13:00:22;32.20;99.90
24410;DHT22;12543;53.364;-1.504;2022-08-01T13:03:00;31.90;99.90
24410;DHT22;12543;53.364;-1.504;2022-08-01T13:05:27;31.90;99.90
24410;DHT22;12543;53.364;-1.504;2022-08-01T13:07:55;31.70;99.90
24410;DHT22;12543;53.364;-1.504;2022-08-01T13:10:29;31.70;99.90
24410;DHT22;12543;53.364;-1.504;2022-08-01T13:12:57;31.60;99.90
24410;DHT22;12543;53.364;-1.504;2022-08-01T13:15:29;31.70;99.90
24410;DHT22;12543;53.364;-1.504;2022-08-01T13:17:59;31.70;99.90
24410;DHT22;12543;53.364;-1.504;2022-08-01T13:20:32;31.70;99.90
24410;DHT22;12543;53.364;-1.504;2022-08-01T13:23:16;31.60;99.90
24410;DHT22;12543;53.364;-1.504;2022-08-01T13:26:03;31.70;99.90
24410;DHT22;12543;53.364;-1.504;2022-08-01T13:28:31;31.70;99.90
24410;DHT22;12543;53.364;-1.504;2022-08-01T13:31:05;31.70;99.90
24410;DHT22;12543;53.364;-1.504;2022-08-01T13:33:44;31.70;99.90
24410;DHT22;12543;53.364;-1.504;2022-08-01T13:36:19;31.50;99.90
24410;DHT22;12543;53.364;-1.504;2022-08-01T13:38:56;31.20;99.90
24410;DHT22;12543;53.364;-1.504;2022-08-01T13:41:46;30.80;98.20
24410;DHT22;12543;53.364;-1.504;2022-08-01T13:44:14;30.50;97.50
24410;DHT22;12543;53.364;-1.504;2022-08-01T13:46:42;30.20;95.70
24410;DHT22;12543;53.364;-1.504;2022-08-01T13:49:17;29.90;96.20
24410;DHT22;12543;53.364;-1.504;2022-08-01T13:51:44;29.70;97.20
24410;DHT22;12543;53.364;-1.504;2022-08-01T13:54:13;29.40;97.80
24410;DHT22;12543;53.364;-1.504;2022-08-01T13:56:40;29.30;96.60
24410;DHT22;12543;53.364;-1.504;2022-08-01T13:59:07;29.00;97.40
24410;DHT22;12543;53.364;-1.504;2022-08-01T14:01:34;28.80;95.00
24410;DHT22;12543;53.364;-1.504;2022-08-01T14:04:02;28.60;96.60
24410;DHT22;12543;53.364;-1.504;2022-08-01T14:06:29;28.40;95.30
24410;DHT22;12543;53.364;-1.504;2022-08-01T14:08:56;28.20;96.90
24410;DHT22;12543;53.364;-1.504;2022-08-01T14:11:23;28.10;98.50
24410;DHT22;12543;53.364;-1.504;2022-08-01T14:13:56;28.00;95.40
24410;DHT22;12543;53.364;-1.504;2022-08-01T14:16:22;27.90;98.20
24410;DHT22;12543;53.364;-1.504;2022-08-01T14:18:50;27.80;96.10
24410;DHT22;12543;53.364;-1.504;2022-08-01T14:21:17;27.60;97.90
24410;DHT22;12543;53.364;-1.504;2022-08-01T14:23:45;27.60;98.70
24410;DHT22;12543;53.364;-1.504;2022-08-01T14:26:12;27.40;97.70
24410;DHT22;12543;53.364;-1.504;2022-08-01T14:28:40;27.40;98.40
24410;DHT22;12543;53.364;-1.504;2022-08-01T14:31:07;27.30;98.90
24410;DHT22;12543;53.364;-1.504;2022-08-01T14:33:34;27.20;99.20
24410;DHT22;12543;53.364;-1.504;2022-08-01T14:36:02;27.20;99.90
24410;DHT22;12543;53.364;-1.504;2022-08-01T14:38:49;27.00;97.20
24410;DHT22;12543;53.364;-1.504;2022-08-01T14:41:16;26.90;98.50
24410;DHT22;12543;53.364;-1.504;2022-08-01T14:43:43;26.80;98.50
24410;DHT22;12543;53.364;-1.504;2022-08-01T14:46:11;26.70;98.50
24410;DHT22;12543;53.364;-1.504;2022-08-01T14:48:39;26.50;99.20
24410;DHT22;12543;53.364;-1.504;2022-08-01T14:51:06;26.40;99.80
24410;DHT22;12543;53.364;-1.504;2022-08-01T14:53:34;26.30;98.60
24410;DHT22;12543;53.364;-1.504;2022-08-01T14:56:03;26.30;99.90
24410;DHT22;12543;53.364;-1.504;2022-08-01T14:58:30;26.20;98.40
24410;DHT22;12543;53.364;-1.504;2022-08-01T15:00:57;26.20;97.60
24410;DHT22;12543;53.364;-1.504;2022-08-01T15:03:25;26.10;98.90
24410;DHT22;12543;53.364;-1.504;2022-08-01T15:05:52;26.10;98.90
24410;DHT22;12543;53.364;-1.504;2022-08-01T15:08:19;26.00;99.50
24410;DHT22;12543;53.364;-1.504;2022-08-01T15:10:46;25.90;99.80
24410;DHT22;12543;53.364;-1.504;2022-08-01T15:13:13;25.90;99.90
24410;DHT22;12543;53.364;-1.504;2022-08-01T15:15:40;25.80;99.90
24410;DHT22;12543;53.364;-1.504;2022-08-01T15:18:09;25.70;99.30
24410;DHT22;12543;53.364;-1.504;2022-08-01T15:20:36;25.60;99.70
24410;DHT22;12543;53.364;-1.504;2022-08-01T15:23:03;25.50;98.70
24410;DHT22;12543;53.364;-1.504;2022-08-01T15:25:32;25.40;98.70
24410;DHT22;12543;53.364;-1.504;2022-08-01T15:28:10;25.40;98.50
24410;DHT22;12543;53.364;-1.504;2022-08-01T15:30:38;25.20;96.60
24410;DHT22;12543;53.364;-1.504;2022-08-01T15:33:05;25.20;97.20
24410;DHT22;12543;53.364;-1.504;2022-08-01T15:35:32;25.00;98.30
24410;DHT22;12543;53.364;-1.504;2022-08-01T15:37:59;25.00;99.90
24410;DHT22;12543;53.364;-1.504;2022-08-01T15:40:26;25.00;99.80
24410;DHT22;12543;53.364;-1.504;2022-08-01T15:42:55;24.90;99.40
24410;DHT22;12543;53.364;-1.504;2022-08-01T15:45:22;24.80;98.60
24410;DHT22;12543;53.364;-1.504;2022-08-01T15:48:11;24.70;98.20
24410;DHT22;12543;53.364;-1.504;2022-08-01T15:50:38;24.70;98.80
24410;DHT22;12543;53.364;-1.504;2022-08-01T15:53:06;24.60;98.40
24410;DHT22;12543;53.364;-1.504;2022-08-01T15:55:36;24.60;99.70
24410;DHT22;12543;53.364;-1.504;2022-08-01T15:58:04;24.50;99.70
24410;DHT22;12543;53.364;-1.504;2022-08-01T16:00:31;24.50;99.90
24410;DHT22;12543;53.364;-1.504;2022-08-01T16:03:08;24.50;97.70
24410;DHT22;12543;53.364;-1.504;2022-08-01T16:05:36;24.50;98.30
24410;DHT22;12543;53.364;-1.504;2022-08-01T16:08:12;24.40;97.50
24410;DHT22;12543;53.364;-1.504;2022-08-01T16:10:40;24.30;98.70
24410;DHT22;12543;53.364;-1.504;2022-08-01T16:13:07;24.30;99.80
24410;DHT22;12543;53.364;-1.504;2022-08-01T16:15:35;24.30;99.90
24410;DHT22;12543;53.364;-1.504;2022-08-01T16:18:04;24.30;98.20
24410;DHT22;12543;53.364;-1.504;2022-08-01T16:20:31;24.30;98.50
24410;DHT22;12543;53.364;-1.504;2022-08-01T16:22:58;24.20;99.10
24410;DHT22;12543;53.364;-1.504;2022-08-01T16:25:25;24.20;97.70